Time;durP1;ratioP1;P1;durP2;ratioP2;P2;SDS_P1;SDS_P2;PMS_P1;PMS_P2;Temp;Humidity;BMP_temperature;BMP_pressure;BME280_temperature;BME280_humidity;BME280_pressure;Samples;Min_cycle;Max_cycle;Signal;HPM_P1;HPM_P2
2022/03/07 00:01:07;;;;;;;46.00;24.73;;;2.20;99.90;;;;;;5053077;28;20060;-67
2022/03/07 00:03:32;;;;;;;51.97;27.77;;;2.20;99.90;;;;;;5053055;28;20501;-68
2022/03/07 00:05:58;;;;;;;44.70;24.38;;;2.20;99.90;;;;;;5052660;28;20059;-67
2022/03/07 00:08:24;;;;;;;48.08;25.77;;;2.10;99.90;;;;;;5053039;28;20377;-69
2022/03/07 00:10:49;;;;;;;44.05;24.30;;;2.10;99.90;;;;;;5053257;28;20090;-68
2022/03/07 00:13:15;;;;;;;47.58;26.27;;;2.10;99.90;;;;;;5035107;28;20021;-67
2022/03/07 00:15:41;;;;;;;40.92;25.05;;;2.10;99.90;;;;;;5052879;28;20025;-67
2022/03/07 00:18:06;;;;;;;49.00;25.95;;;2.10;99.90;;;;;;5052975;28;20020;-67
2022/03/07 00:20:33;;;;;;;46.47;25.48;;;2.00;99.90;;;;;;5052957;28;20021;-68
2022/03/07 00:22:58;;;;;;;47.95;25.23;;;2.00;99.90;;;;;;5052919;28;20027;-67
2022/03/07 00:25:24;;;;;;;46.72;25.15;;;2.10;99.90;;;;;;5052958;28;20388;-67
2022/03/07 00:27:50;;;;;;;45.88;26.30;;;2.10;99.90;;;;;;5052959;28;20021;-68
2022/03/07 00:30:17;;;;;;;45.50;25.85;;;2.10;99.90;;;;;;5056493;28;20033;-67
2022/03/07 00:32:43;;;;;;;44.42;24.95;;;2.10;99.90;;;;;;5056885;28;20025;-67
2022/03/07 00:35:10;;;;;;;42.20;24.67;;;2.10;99.90;;;;;;5056759;28;20084;-68
2022/03/07 00:37:37;;;;;;;42.75;24.10;;;2.20;99.90;;;;;;5057104;28;20072;-68
2022/03/07 00:40:06;;;;;;;46.50;25.15;;;2.20;99.90;;;;;;5057039;28;20033;-68
2022/03/07 00:42:32;;;;;;;46.20;24.27;;;2.20;99.90;;;;;;5056711;28;20393;-68
2022/03/07 00:44:57;;;;;;;44.05;25.23;;;2.20;99.90;;;;;;5056690;28;20029;-68
2022/03/07 00:47:25;;;;;;;48.50;25.05;;;2.30;99.90;;;;;;5056931;28;20385;-67
2022/03/07 00:49:51;;;;;;;40.88;24.00;;;2.30;99.90;;;;;;5056841;28;20025;-68
2022/03/07 00:52:17;;;;;;;47.55;26.83;;;2.30;99.90;;;;;;5056516;28;20104;-68
2022/03/07 00:54:42;;;;;;;44.65;26.25;;;2.30;99.90;;;;;;5056633;28;20028;-68
2022/03/07 00:57:08;;;;;;;45.88;24.63;;;2.20;99.90;;;;;;5056763;28;20358;-67
2022/03/07 00:59:34;;;;;;;48.22;25.65;;;2.20;99.90;;;;;;5056735;28;20044;-68
2022/03/07 01:02:00;;;;;;;42.20;23.90;;;2.20;99.90;;;;;;5056398;28;20021;-68
2022/03/07 01:04:25;;;;;;;48.13;26.42;;;2.10;99.90;;;;;;5056005;28;20075;-67
2022/03/07 01:06:51;;;;;;;47.00;25.50;;;2.10;99.90;;;;;;5056552;28;20100;-68
2022/03/07 01:09:17;;;;;;;44.08;25.73;;;2.00;99.90;;;;;;5056250;28;20036;-67
2022/03/07 01:11:42;;;;;;;48.45;26.60;;;1.90;99.90;;;;;;5056173;28;20028;-67
2022/03/07 01:14:08;;;;;;;46.53;26.13;;;1.90;99.90;;;;;;5056090;28;20029;-67
2022/03/07 01:16:34;;;;;;;50.30;27.42;;;1.80;99.90;;;;;;5056161;28;20023;-68
2022/03/07 01:18:59;;;;;;;49.60;26.25;;;1.70;99.90;;;;;;5056353;28;20025;-67
2022/03/07 01:21:25;;;;;;;46.17;25.38;;;1.70;99.90;;;;;;5056285;28;20044;-68
2022/03/07 01:23:51;;;;;;;43.67;24.08;;;1.70;99.90;;;;;;5055971;28;20025;-68
2022/03/07 01:26:18;;;;;;;45.92;25.60;;;1.70;99.90;;;;;;5056385;28;20024;-67
2022/03/07 01:28:43;;;;;;;45.75;25.27;;;1.70;99.90;;;;;;5055872;28;20025;-68
2022/03/07 01:31:09;;;;;;;47.85;27.77;;;1.70;99.90;;;;;;5038000;28;20096;-67
2022/03/07 01:33:34;;;;;;;44.10;24.67;;;1.70;99.90;;;;;;5055755;28;20029;-67
2022/03/07 01:36:00;;;;;;;42.33;23.65;;;1.60;99.90;;;;;;5055615;28;20025;-68
2022/03/07 01:38:26;;;;;;;46.67;25.55;;;1.60;99.90;;;;;;5055942;28;20020;-67
2022/03/07 01:40:51;;;;;;;53.22;27.70;;;1.60;99.90;;;;;;5055355;28;20021;-68
2022/03/07 01:43:17;;;;;;;50.80;26.75;;;1.50;99.90;;;;;;5055534;28;20439;-67
2022/03/07 01:45:43;;;;;;;49.50;27.25;;;1.40;99.90;;;;;;5055544;28;20017;-68
2022/03/07 01:48:10;;;;;;;50.38;27.20;;;1.30;99.90;;;;;;5055498;28;20029;-68
2022/03/07 01:50:36;;;;;;;48.97;27.80;;;1.30;99.90;;;;;;5055462;28;20024;-68
2022/03/07 01:53:01;;;;;;;50.45;27.70;;;1.30;99.90;;;;;;5055452;28;20029;-68
2022/03/07 01:55:27;;;;;;;52.40;28.88;;;1.40;99.90;;;;;;5055374;28;20056;-68
2022/03/07 01:57:53;;;;;;;54.22;28.25;;;1.30;99.90;;;;;;5055556;28;20071;-68
2022/03/07 02:00:24;;;;;;;54.42;29.42;;;1.20;99.90;;;;;;5055791;28;20025;-68
2022/03/07 02:02:51;;;;;;;46.13;25.08;;;1.20;99.90;;;;;;5055248;28;20462;-67
2022/03/07 02:05:17;;;;;;;50.55;27.73;;;1.20;99.90;;;;;;5054861;28;20045;-67
2022/03/07 02:07:43;;;;;;;48.70;27.85;;;1.10;99.90;;;;;;5055141;28;20086;-67
2022/03/07 02:10:10;;;;;;;60.67;30.08;;;1.00;99.90;;;;;;5055338;28;20544;-67
2022/03/07 02:12:36;;;;;;;55.15;29.35;;;0.90;99.90;;;;;;5055031;28;20108;-67
2022/03/07 02:15:02;;;;;;;48.78;27.20;;;0.90;99.90;;;;;;5054911;28;20028;-68
2022/03/07 02:17:29;;;;;;;52.50;28.42;;;0.80;99.90;;;;;;5054915;28;20017;-68
2022/03/07 02:19:54;;;;;;;54.58;30.23;;;0.70;99.90;;;;;;5055163;28;20021;-67
2022/03/07 02:22:22;;;;;;;48.60;25.70;;;0.60;99.90;;;;;;5055350;28;20028;-68
2022/03/07 02:24:47;;;;;;;46.45;25.92;;;0.40;99.90;;;;;;5055131;28;20381;-68
2022/03/07 02:27:16;;;;;;;48.65;26.13;;;0.40;99.90;;;;;;5055010;28;20085;-68
2022/03/07 02:29:42;;;;;;;43.53;25.30;;;0.30;99.90;;;;;;5054740;28;20025;-67
2022/03/07 02:32:08;;;;;;;44.38;24.60;;;0.20;99.90;;;;;;5054723;28;20036;-67
2022/03/07 02:34:34;;;;;;;45.50;24.80;;;0.20;99.90;;;;;;5054524;28;20478;-68
2022/03/07 02:37:00;;;;;;;49.25;25.58;;;0.20;99.90;;;;;;5054582;28;20025;-67
2022/03/07 02:39:25;;;;;;;51.50;25.80;;;0.10;99.90;;;;;;5054498;28;20491;-68
2022/03/07 02:41:51;;;;;;;51.47;25.98;;;0.10;99.90;;;;;;5054507;28;20504;-68
2022/03/07 02:44:17;;;;;;;48.08;25.13;;;0.00;99.90;;;;;;5054424;28;20428;-67
2022/03/07 02:46:43;;;;;;;49.08;24.98;;;0.00;99.90;;;;;;5054426;28;20031;-68
2022/03/07 02:49:09;;;;;;;45.47;25.48;;;0.00;99.90;;;;;;5054674;28;20013;-68
2022/03/07 02:51:35;;;;;;;46.28;25.40;;;-0.10;99.90;;;;;;5053477;28;20366;-67
2022/03/07 02:54:01;;;;;;;45.38;24.88;;;-0.10;99.90;;;;;;5054525;28;20473;-67
2022/03/07 02:56:27;;;;;;;47.40;24.90;;;-0.10;99.90;;;;;;5054087;28;20028;-67
2022/03/07 02:58:52;;;;;;;45.25;23.65;;;0.00;99.90;;;;;;5054438;28;20021;-68
2022/03/07 03:01:18;;;;;;;45.25;22.88;;;-0.10;99.90;;;;;;5054366;28;20075;-67
2022/03/07 03:03:44;;;;;;;52.17;25.63;;;-0.10;99.90;;;;;;5054100;28;20045;-67
2022/03/07 03:06:10;;;;;;;44.63;25.65;;;-0.10;99.90;;;;;;5053701;28;20057;-68
2022/03/07 03:08:36;;;;;;;48.05;25.85;;;-0.10;99.90;;;;;;5054269;28;20025;-67
2022/03/07 03:11:01;;;;;;;42.05;24.23;;;-0.10;99.90;;;;;;5054214;28;20040;-68
2022/03/07 03:13:27;;;;;;;47.65;25.02;;;-0.10;99.90;;;;;;5054146;28;20078;-68
2022/03/07 03:15:54;;;;;;;45.22;23.35;;;-0.10;99.90;;;;;;5054025;28;20033;-68
2022/03/07 03:18:20;;;;;;;46.53;24.67;;;-0.10;99.90;;;;;;5053829;28;20084;-68
2022/03/07 03:20:49;;;;;;;47.53;24.85;;;-0.10;99.90;;;;;;5053784;28;20013;-68
2022/03/07 03:23:15;;;;;;;45.42;24.92;;;-0.20;99.90;;;;;;5053718;28;20096;-67
2022/03/07 03:25:40;;;;;;;42.95;24.63;;;-0.20;99.90;;;;;;5053712;28;20052;-67
2022/03/07 03:28:07;;;;;;;46.05;24.80;;;-0.20;99.90;;;;;;5053990;28;20056;-68
2022/03/07 03:30:32;;;;;;;45.78;24.52;;;-0.20;99.90;;;;;;5053607;28;20033;-68
2022/03/07 03:32:58;;;;;;;49.20;25.58;;;-0.30;99.90;;;;;;5053518;28;20470;-67
2022/03/07 03:35:24;;;;;;;55.95;27.23;;;-0.30;99.90;;;;;;5053416;28;20056;-68
2022/03/07 03:37:51;;;;;;;48.53;25.67;;;-0.30;99.90;;;;;;5053759;28;20028;-68
2022/03/07 03:40:17;;;;;;;53.25;27.80;;;-0.20;99.90;;;;;;5053434;28;20393;-67
2022/03/07 03:42:43;;;;;;;56.33;28.95;;;-0.20;99.90;;;;;;5053393;28;20021;-68
2022/03/07 03:45:09;;;;;;;52.40;27.88;;;0.00;99.90;;;;;;5053380;28;20530;-67
2022/03/07 03:47:36;;;;;;;54.42;28.52;;;0.10;99.90;;;;;;5053290;28;20025;-68
2022/03/07 03:50:03;;;;;;;49.03;26.80;;;0.10;99.90;;;;;;5053323;28;20127;-67
2022/03/07 03:52:30;;;;;;;49.15;26.83;;;0.10;99.90;;;;;;5053200;28;20025;-68
2022/03/07 03:54:55;;;;;;;55.42;29.05;;;0.00;99.90;;;;;;5053090;28;20044;-68
2022/03/07 03:57:22;;;;;;;50.50;26.00;;;0.10;99.90;;;;;;5053221;28;20138;-68
2022/03/07 03:59:48;;;;;;;56.55;28.52;;;0.30;99.90;;;;;;5053454;28;20432;-68
2022/03/07 04:02:13;;;;;;;50.05;27.90;;;0.30;99.90;;;;;;5052974;28;20025;-68
2022/03/07 04:04:39;;;;;;;49.53;28.92;;;0.40;99.90;;;;;;5052937;28;20094;-67
2022/03/07 04:07:05;;;;;;;51.53;26.98;;;0.30;99.90;;;;;;5053097;28;20025;-68
2022/03/07 04:09:30;;;;;;;53.30;27.20;;;0.30;99.90;;;;;;5053657;28;20031;-67
2022/03/07 04:11:56;;;;;;;50.92;27.20;;;0.30;99.90;;;;;;5053065;28;20021;-68
2022/03/07 04:14:22;;;;;;;49.83;27.27;;;0.20;99.90;;;;;;5052976;28;20036;-68
2022/03/07 04:16:48;;;;;;;50.17;27.08;;;0.20;99.90;;;;;;5053003;28;20449;-67
2022/03/07 04:19:15;;;;;;;58.88;30.95;;;0.20;99.90;;;;;;5035122;28;20017;-67
2022/03/07 04:21:41;;;;;;;53.17;28.30;;;0.20;99.90;;;;;;5035073;28;20063;-68
2022/03/07 04:24:09;;;;;;;53.88;29.23;;;0.30;99.90;;;;;;5052947;28;20029;-67
2022/03/07 04:26:35;;;;;;;50.83;27.83;;;0.30;99.90;;;;;;5052910;28;20033;-68
2022/03/07 04:29:05;;;;;;;51.22;28.00;;;0.20;99.90;;;;;;5052952;28;20009;-68
2022/03/07 04:31:31;;;;;;;52.20;27.10;;;0.30;99.90;;;;;;5053105;28;20028;-67
2022/03/07 04:33:57;;;;;;;56.47;29.10;;;0.20;99.90;;;;;;5034940;28;20363;-68
2022/03/07 04:36:22;;;;;;;49.83;28.70;;;0.30;99.90;;;;;;5052757;28;20036;-67
2022/03/07 04:38:48;;;;;;;53.55;29.30;;;0.20;99.90;;;;;;5052896;28;20021;-68
2022/03/07 04:41:14;;;;;;;52.10;29.42;;;0.10;99.90;;;;;;5052835;28;20025;-67
2022/03/07 04:43:40;;;;;;;57.95;31.05;;;0.10;99.90;;;;;;5052818;28;20021;-68
2022/03/07 04:46:09;;;;;;;54.25;28.83;;;0.00;99.90;;;;;;5052814;28;20477;-68
2022/03/07 04:48:35;;;;;;;56.35;28.75;;;-0.20;99.90;;;;;;5052990;28;20071;-68
2022/03/07 04:51:01;;;;;;;53.03;29.20;;;-0.30;99.90;;;;;;5052744;28;20083;-67
2022/03/07 04:53:27;;;;;;;56.78;28.02;;;-0.40;99.90;;;;;;5052967;28;20033;-67
2022/03/07 04:55:52;;;;;;;53.17;27.48;;;-0.60;99.90;;;;;;5052537;28;20121;-66
2022/03/07 04:58:18;;;;;;;53.95;29.52;;;-0.70;99.90;;;;;;5052642;28;20028;-67
2022/03/07 05:00:43;;;;;;;57.38;29.40;;;-0.70;99.90;;;;;;5052595;28;20025;-67
2022/03/07 05:03:09;;;;;;;52.40;28.20;;;-0.80;99.90;;;;;;5052887;28;20022;-67
2022/03/07 05:05:35;;;;;;;58.05;29.33;;;-0.80;99.90;;;;;;5052400;28;20044;-68
2022/03/07 05:08:00;;;;;;;54.20;27.52;;;-0.80;99.90;;;;;;5052571;28;20385;-67
2022/03/07 05:10:26;;;;;;;49.88;26.48;;;-0.90;99.90;;;;;;5052514;28;20040;-67
2022/03/07 05:12:52;;;;;;;54.47;27.00;;;-0.90;99.90;;;;;;5052759;28;20021;-67
2022/03/07 05:15:17;;;;;;;47.22;25.25;;;-0.90;99.90;;;;;;5054215;28;20029;-67
2022/03/07 05:17:44;;;;;;;43.90;24.73;;;-1.00;99.90;;;;;;5056075;28;20029;-68
2022/03/07 05:20:13;;;;;;;45.83;23.92;;;-1.00;99.90;;;;;;5056540;28;20029;-67
2022/03/07 05:22:39;;;;;;;49.15;25.05;;;-1.10;99.90;;;;;;5056613;28;20021;-68
2022/03/07 05:25:06;;;;;;;42.97;23.65;;;-1.10;99.90;;;;;;5055990;28;20171;-68
2022/03/07 05:27:32;;;;;;;49.88;24.08;;;-1.10;99.90;;;;;;5055828;28;20056;-68
2022/03/07 05:29:57;;;;;;;49.40;25.17;;;-1.00;99.90;;;;;;5055872;28;20079;-67
2022/03/07 05:32:23;;;;;;;51.42;24.90;;;-1.20;99.90;;;;;;5056079;28;20485;-67
2022/03/07 05:34:49;;;;;;;47.92;26.02;;;-1.20;99.90;;;;;;5055981;28;20444;-67
2022/03/07 05:37:14;;;;;;;49.03;26.42;;;-1.20;99.90;;;;;;5055694;28;20448;-68
2022/03/07 05:39:40;;;;;;;48.22;26.48;;;-1.20;99.90;;;;;;5055703;28;20049;-68
2022/03/07 05:42:06;;;;;;;49.33;26.08;;;-1.20;99.90;;;;;;5055893;28;20032;-67
2022/03/07 05:44:32;;;;;;;52.17;26.25;;;-1.20;99.90;;;;;;5037657;28;20396;-67
2022/03/07 05:46:57;;;;;;;46.60;24.48;;;-1.10;99.90;;;;;;5055783;28;20099;-67
2022/03/07 05:49:23;;;;;;;55.50;28.13;;;-1.20;99.90;;;;;;5055502;28;20068;-67
2022/03/07 05:51:49;;;;;;;54.13;25.92;;;-1.10;99.90;;;;;;5055456;28;20029;-66
2022/03/07 05:54:14;;;;;;;47.38;24.88;;;-1.20;99.90;;;;;;5055271;28;20030;-68
2022/03/07 05:56:40;;;;;;;53.83;26.55;;;-1.20;99.90;;;;;;5055362;28;20013;-67
2022/03/07 05:59:06;;;;;;;51.15;26.85;;;-1.20;99.90;;;;;;5037468;28;20497;-67
2022/03/07 06:01:32;;;;;;;52.08;28.23;;;-1.20;99.90;;;;;;5055820;28;20021;-68
2022/03/07 06:03:57;;;;;;;53.28;26.80;;;-1.20;99.90;;;;;;5055244;28;20104;-68
2022/03/07 06:06:23;;;;;;;52.75;27.25;;;-1.20;99.90;;;;;;5054782;28;20052;-67
2022/03/07 06:08:50;;;;;;;56.63;28.45;;;-1.20;99.90;;;;;;5055369;28;20053;-67
2022/03/07 06:11:15;;;;;;;50.05;27.20;;;-1.30;99.90;;;;;;5055118;28;20478;-68
2022/03/07 06:13:41;;;;;;;45.25;23.77;;;-1.30;99.90;;;;;;5055346;28;20029;-67
2022/03/07 06:16:07;;;;;;;50.67;26.67;;;-1.30;99.90;;;;;;5055259;28;20462;-67
2022/03/07 06:18:32;;;;;;;47.50;25.25;;;-1.30;99.90;;;;;;5054984;28;20021;-67
2022/03/07 06:20:58;;;;;;;46.55;23.55;;;-1.30;99.90;;;;;;5054935;28;20017;-67
2022/03/07 06:23:24;;;;;;;50.97;26.70;;;-1.40;99.90;;;;;;5054874;28;20026;-67
2022/03/07 06:25:50;;;;;;;50.95;25.42;;;-1.30;99.90;;;;;;5036857;28;20497;-68
2022/03/07 06:28:16;;;;;;;48.67;26.00;;;-1.00;99.90;;;;;;5055034;28;20078;-68
2022/03/07 06:30:44;;;;;;;49.00;26.77;;;-0.90;99.90;;;;;;5055037;28;20029;-67
2022/03/07 06:33:10;;;;;;;52.83;26.70;;;-0.90;99.90;;;;;;5054714;28;20024;-67
2022/03/07 06:35:35;;;;;;;54.55;27.65;;;-0.90;99.90;;;;;;5054867;28;20170;-68
2022/03/07 06:38:01;;;;;;;48.08;26.00;;;-0.80;99.90;;;;;;5054851;28;20029;-68
2022/03/07 06:40:28;;;;;;;53.15;27.08;;;-0.80;99.90;;;;;;5054558;28;20053;-67
2022/03/07 06:42:54;;;;;;;44.50;25.38;;;-0.80;99.90;;;;;;5054656;28;20032;-67
2022/03/07 06:45:20;;;;;;;54.75;28.02;;;-0.80;99.90;;;;;;5054639;28;20029;-67
2022/03/07 06:47:46;;;;;;;49.85;29.50;;;-0.70;99.90;;;;;;5036592;28;20420;-67
2022/03/07 06:50:13;;;;;;;58.08;30.55;;;-0.60;99.90;;;;;;5054363;28;20529;-67
2022/03/07 06:52:39;;;;;;;60.53;32.55;;;-0.60;99.90;;;;;;5054294;28;20025;-68
2022/03/07 06:55:05;;;;;;;68.55;35.60;;;-0.50;99.90;;;;;;5054318;28;20397;-67
2022/03/07 06:57:31;;;;;;;69.03;34.88;;;-0.40;99.90;;;;;;5054827;28;20060;-67
2022/03/07 06:59:56;;;;;;;74.38;33.65;;;-0.30;99.90;;;;;;5054153;28;20059;-68
2022/03/07 07:02:22;;;;;;;54.53;30.33;;;-0.30;99.90;;;;;;5054111;28;20040;-68
2022/03/07 07:04:48;;;;;;;53.20;29.90;;;-0.30;99.90;;;;;;5053905;28;20052;-68
2022/03/07 07:07:15;;;;;;;48.90;27.88;;;-0.30;99.90;;;;;;5053975;28;20094;-68
2022/03/07 07:09:41;;;;;;;46.47;25.75;;;-0.30;99.90;;;;;;5054254;28;20029;-67
2022/03/07 07:12:08;;;;;;;46.25;25.35;;;-0.30;99.90;;;;;;5053960;28;20021;-67
2022/03/07 07:14:34;;;;;;;46.35;26.08;;;-0.40;99.90;;;;;;5054144;28;20033;-67
2022/03/07 07:17:00;;;;;;;51.65;31.50;;;-0.30;99.90;;;;;;5054662;28;20028;-67
2022/03/07 07:19:26;;;;;;;52.25;29.63;;;-0.10;99.90;;;;;;5053832;28;20021;-68
2022/03/07 07:21:52;;;;;;;54.83;33.65;;;-0.10;99.90;;;;;;5053756;28;20021;-68
2022/03/07 07:24:17;;;;;;;56.13;32.30;;;0.00;99.90;;;;;;5053965;28;20025;-68
2022/03/07 07:26:43;;;;;;;50.13;27.83;;;0.10;99.90;;;;;;5053681;28;20100;-67
2022/03/07 07:29:09;;;;;;;51.58;30.80;;;0.30;99.90;;;;;;5053636;28;20422;-67
2022/03/07 07:31:34;;;;;;;54.50;29.23;;;0.40;99.90;;;;;;5035766;28;20385;-68
2022/03/07 07:34:00;;;;;;;47.10;26.35;;;0.50;99.90;;;;;;5053600;28;20457;-67
2022/03/07 07:36:25;;;;;;;84.03;42.15;;;0.60;99.90;;;;;;5053716;28;20044;-67
2022/03/07 07:38:51;;;;;;;51.45;27.83;;;0.80;99.90;;;;;;5053634;28;20065;-67
2022/03/07 07:41:17;;;;;;;42.80;25.30;;;0.90;99.90;;;;;;5053463;28;20074;-68
2022/03/07 07:43:42;;;;;;;42.65;26.00;;;1.30;99.90;;;;;;5053440;28;20028;-68
2022/03/07 07:46:08;;;;;;;49.65;28.63;;;1.50;99.90;;;;;;5053887;28;20025;-67
2022/03/07 07:48:34;;;;;;;44.17;26.55;;;1.70;99.90;;;;;;5053304;28;20393;-67
2022/03/07 07:50:59;;;;;;;47.67;26.80;;;1.80;99.90;;;;;;5053540;28;20408;-68
2022/03/07 07:53:25;;;;;;;48.10;28.40;;;1.90;99.90;;;;;;5053524;28;20032;-68
2022/03/07 07:55:51;;;;;;;45.75;27.83;;;2.00;99.90;;;;;;5053389;28;20048;-68
2022/03/07 07:58:16;;;;;;;44.85;26.58;;;2.20;99.90;;;;;;5052676;28;20421;-68
2022/03/07 08:00:42;;;;;;;42.65;25.95;;;2.40;99.90;;;;;;5053063;28;20520;-68
2022/03/07 08:03:08;;;;;;;44.05;26.17;;;2.60;99.90;;;;;;5053700;28;20501;-69
2022/03/07 08:05:34;;;;;;;40.75;25.83;;;2.80;99.90;;;;;;5056202;28;20045;-67
2022/03/07 08:08:00;;;;;;;35.25;22.83;;;3.00;99.90;;;;;;5073208;28;20060;-67
2022/03/07 08:10:26;;;;;;;41.00;24.02;;;3.20;99.90;;;;;;5073164;28;20052;-69
2022/03/07 08:12:51;;;;;;;36.95;23.58;;;3.40;99.90;;;;;;5072956;28;20105;-68
2022/03/07 08:15:18;;;;;;;40.17;24.83;;;3.50;99.90;;;;;;5073061;28;20035;-67
2022/03/07 08:17:52;;;;;;;37.45;23.10;;;3.60;99.90;;;;;;5055920;28;20017;-68
2022/03/07 08:20:22;;;;;;;39.78;24.00;;;3.80;99.90;;;;;;5052615;28;20031;-70
2022/03/07 08:22:49;;;;;;;34.70;22.08;;;3.90;99.90;;;;;;5072694;28;20063;-69
2022/03/07 08:25:15;;;;;;;34.97;21.60;;;4.10;99.90;;;;;;5072728;28;20028;-67
2022/03/07 08:27:41;;;;;;;37.90;23.73;;;4.30;99.90;;;;;;5072688;28;20098;-69
2022/03/07 08:30:12;;;;;;;35.55;22.88;;;4.70;99.90;;;;;;5073339;28;20025;-70
2022/03/07 08:32:40;;;;;;;30.88;20.77;;;;;;;;;;5072113;28;20033;-70
2022/03/07 08:35:06;;;;;;;31.98;21.58;;;8.10;99.90;;;;;;5073795;28;20028;-70
2022/03/07 08:37:33;;;;;;;27.27;20.80;;;13.10;99.20;;;;;;5073718;28;20384;-72
2022/03/07 08:39:59;;;;;;;27.73;20.98;;;14.20;95.30;;;;;;5072028;28;20210;-68
2022/03/07 08:42:25;;;;;;;26.55;20.88;;;15.00;91.20;;;;;;5072866;28;20543;-71
2022/03/07 08:44:52;;;;;;;30.27;22.02;;;15.70;85.40;;;;;;5072600;28;20103;-73
2022/03/07 08:47:18;;;;;;;28.02;21.65;;;16.50;77.20;;;;;;5071148;28;20033;-71
2022/03/07 08:49:44;;;;;;;25.33;21.20;;;16.90;71.70;;;;;;5073260;28;20037;-70
2022/03/07 08:52:10;;;;;;;26.80;21.10;;;17.10;69.30;;;;;;5076801;28;20477;-69
2022/03/07 08:54:36;;;;;;;27.75;23.63;;;;;;;;;;5076386;28;20424;-70
2022/03/07 08:57:03;;;;;;;25.13;20.67;;;;;;;;;;5076185;28;20489;-69
2022/03/07 08:59:29;;;;;;;26.75;22.77;;;;;;;;;;5076478;28;20370;-70
2022/03/07 09:01:58;;;;;;;25.45;21.40;;;;;;;;;;5076096;28;20100;-70
2022/03/07 09:04:25;;;;;;;24.65;20.95;;;17.00;67.50;;;;;;5072233;28;20029;-72
2022/03/07 09:06:53;;;;;;;27.10;22.48;;;18.40;58.20;;;;;;5037833;28;20025;-71
2022/03/07 09:09:18;;;;;;;25.50;22.08;;;18.30;58.10;;;;;;5056360;28;20025;-71
2022/03/07 09:11:44;;;;;;;23.98;21.25;;;;;;;;;;5056424;28;20083;-72
2022/03/07 09:14:11;;;;;;;27.65;22.00;;;;;;;;;;5056291;28;20036;-71
2022/03/07 09:16:36;;;;;;;26.65;21.85;;;19.00;55.80;;;;;;5037903;28;20064;-67
2022/03/07 09:19:03;;;;;;;25.65;22.85;;;;;;;;;;5056175;28;20386;-71
2022/03/07 09:21:29;;;;;;;23.90;21.38;;;;;;;;;;5055928;28;20025;-70
2022/03/07 09:23:55;;;;;;;25.10;21.70;;;;;;;;;;5056298;28;20033;-70
2022/03/07 09:26:21;;;;;;;25.58;21.15;;;;;;;;;;5055411;28;20024;-72
2022/03/07 09:28:47;;;;;;;27.92;22.48;;;;;;;;;;5055608;28;20029;-71
2022/03/07 09:31:13;;;;;;;28.17;23.15;;;;;;;;;;5055534;28;20029;-72
2022/03/07 09:33:39;;;;;;;26.73;23.52;;;;;;;;;;5055510;28;20021;-72
2022/03/07 09:36:05;;;;;;;25.15;22.48;;;;;;;;;;5055448;28;20025;-71
2022/03/07 09:38:34;;;;;;;24.92;22.33;;;;;;;;;;5055724;28;20021;-72
2022/03/07 09:41:01;;;;;;;23.23;20.73;;;;;;;;;;5055538;28;20095;-73
2022/03/07 09:43:27;;;;;;;24.02;21.27;;;;;;;;;;5054391;28;20021;-71
2022/03/07 09:45:53;;;;;;;23.25;20.77;;;;;;;;;;5054516;28;20033;-70
2022/03/07 09:48:21;;;;;;;24.33;21.25;;;;;;;;;;5056093;28;20028;-72
2022/03/07 09:50:47;;;;;;;24.48;21.88;;;;;;;;;;5054760;28;20025;-71
2022/03/07 09:53:13;;;;;;;23.50;20.85;;;;;;;;;;5054541;28;20520;-70
2022/03/07 09:55:40;;;;;;;23.45;20.95;;;;;;;;;;5055246;28;20029;-76
2022/03/07 09:58:06;;;;;;;26.25;23.15;;;;;;;;;;5055092;28;20512;-71
2022/03/07 10:00:32;;;;;;;24.50;21.25;;;;;;;;;;5055044;28;20025;-73
2022/03/07 10:03:02;;;;;;;23.58;21.02;;;;;;;;;;5054871;28;20024;-73
2022/03/07 10:05:29;;;;;;;24.95;21.00;;;;;;;;;;5054428;28;20072;-74
2022/03/07 10:07:56;;;;;;;26.55;22.38;;;;;;;;;;5054462;28;20021;-77
2022/03/07 10:10:22;;;;;;;25.10;20.88;;;;;;;;;;5055211;28;20029;-74
2022/03/07 10:12:49;;;;;;;23.95;21.45;;;;;;;;;;5054853;28;20064;-71
2022/03/07 10:15:19;;;;;;;24.67;21.13;;;;;;;;;;5054627;28;20036;-71
2022/03/07 10:17:51;;;;;;;23.98;21.38;;;19.30;54.50;;;;;;5054636;28;20028;-70
2022/03/07 10:20:19;;;;;;;23.73;21.27;;;;;;;;;;5055109;28;20100;-71
2022/03/07 10:23:05;;;;;;;26.27;22.45;;;;;;;;;;5054541;28;20100;-71
2022/03/07 10:25:32;;;;;;;22.85;20.55;;;;;;;;;;5054581;28;20029;-71
2022/03/07 10:28:00;;;;;;;23.95;21.52;;;;;;;;;;5054345;28;20540;-70
2022/03/07 10:30:27;;;;;;;23.00;20.58;;;;;;;;;;5054762;28;20029;-72
2022/03/07 10:32:53;;;;;;;23.52;21.13;;;;;;;;;;5054343;28;20036;-70
2022/03/07 10:35:28;;;;;;;23.08;20.52;;;;;;;;;;5054443;28;20072;-70
2022/03/07 10:37:58;;;;;;;23.45;21.05;;;;;;;;;;5054211;28;20029;-70
2022/03/07 10:40:25;;;;;;;24.27;21.67;;;;;;;;;;5055199;28;20030;-71
2022/03/07 10:42:54;;;;;;;23.60;21.10;;;;;;;;;;5053901;28;20021;-73
2022/03/07 10:45:21;;;;;;;23.92;20.63;;;;;;;;;;5054549;28;20032;-73
2022/03/07 10:47:51;;;;;;;23.48;20.98;;;;;;;;;;5054640;28;20024;-70
2022/03/07 10:50:19;;;;;;;23.98;20.20;;;;;;;;;;5053727;28;20029;-73
2022/03/07 10:52:45;;;;;;;23.42;20.88;;;;;;;;;;5036160;28;20028;-70
2022/03/07 10:55:12;;;;;;;24.15;20.80;;;;;;;;;;5054063;28;20033;-74
2022/03/07 10:57:40;;;;;;;22.48;20.13;;;;;;;;;;5054264;28;20025;-70
2022/03/07 11:00:21;;;;;;;23.23;20.88;;;;;;;;;;5053976;28;20520;-73
2022/03/07 11:02:49;;;;;;;23.77;21.15;;;;;;;;;;5053847;28;20492;-72
2022/03/07 11:05:16;;;;;;;24.02;21.40;;;;;;;;;;5053033;28;20056;-72
2022/03/07 11:07:43;;;;;;;23.25;20.73;;;;;;;;;;5054043;28;20389;-73
2022/03/07 11:10:10;;;;;;;24.13;21.40;;;;;;;;;;5053560;28;20040;-71
2022/03/07 11:12:37;;;;;;;24.08;21.35;;;;;;;;;;5053252;28;20032;-72
2022/03/07 11:15:11;;;;;;;23.63;20.83;;;;;;;;;;5052137;28;20120;-70
2022/03/07 11:17:38;;;;;;;23.88;20.63;;;;;;;;;;5053454;28;20035;-71
2022/03/07 11:20:04;;;;;;;23.92;21.42;;;;;;;;;;5053862;28;20396;-76
2022/03/07 11:22:32;;;;;;;23.88;21.00;;;;;;;;;;5053408;28;20024;-73
2022/03/07 11:24:58;;;;;;;25.23;22.30;;;;;;;;;;5053249;28;20044;-73
2022/03/07 11:27:24;;;;;;;24.05;21.45;;;;;;;;;;5053142;28;20032;-75
2022/03/07 11:29:50;;;;;;;25.00;21.98;;;;;;;;;;5053302;28;20021;-72
2022/03/07 11:32:18;;;;;;;25.05;22.23;;;;;;;;;;5053453;28;20021;-72
2022/03/07 11:34:54;;;;;;;24.38;21.13;;;;;;;;;;5052478;28;20029;-72
2022/03/07 11:37:21;;;;;;;26.55;21.95;;;;;;;;;;5053463;28;20101;-72
2022/03/07 11:39:47;;;;;;;30.83;22.08;;;;;;;;;;5053466;28;20104;-72
2022/03/07 11:42:15;;;;;;;29.25;22.52;;;;;;;;;;5053767;28;20028;-71
2022/03/07 11:44:44;;;;;;;30.25;23.20;;;;;;;;;;5053383;28;20025;-72
2022/03/07 11:47:11;;;;;;;27.98;21.60;;;;;;;;;;5053344;28;20025;-73
2022/03/07 11:49:38;;;;;;;28.52;20.98;;;;;;;;;;5053331;28;20445;-72
2022/03/07 11:52:09;;;;;;;28.45;19.70;;;21.70;43.60;;;;;;5053293;28;20028;-71
2022/03/07 11:54:50;;;;;;;23.88;17.88;;;12.00;55.60;;;;;;5053187;28;20013;-72
2022/03/07 11:57:16;;;;;;;25.80;17.95;;;11.40;56.50;;;;;;5035133;28;20397;-72
2022/03/07 11:59:42;;;;;;;27.88;18.52;;;10.90;57.90;;;;;;5053218;28;20032;-72
2022/03/07 12:02:08;;;;;;;26.25;17.58;;;10.80;58.30;;;;;;5053224;28;20017;-71
2022/03/07 12:04:42;;;;;;;24.80;17.40;;;10.80;58.20;;;;;;5052949;28;20134;-72
2022/03/07 12:07:08;;;;;;;25.90;18.75;;;11.00;57.00;;;;;;5053066;28;20028;-72
2022/03/07 12:09:36;;;;;;;25.13;17.85;;;11.40;58.60;;;;;;5053110;28;20029;-72
2022/03/07 12:12:10;;;;;;;26.65;18.70;;;11.60;57.70;;;;;;5053077;28;20021;-71
2022/03/07 12:14:45;;;;;;;25.25;16.92;;;11.90;57.70;;;;;;5035070;28;20032;-71
2022/03/07 12:17:12;;;;;;;23.17;16.73;;;12.20;53.70;;;;;;5053384;28;20021;-69
2022/03/07 12:19:39;;;;;;;24.58;17.73;;;12.10;55.20;;;;;;5053566;28;20112;-70
2022/03/07 12:22:13;;;;;;;23.00;16.38;;;12.70;55.40;;;;;;5053336;28;20444;-69
2022/03/07 12:24:39;;;;;;;24.83;18.38;;;13.20;53.20;;;;;;5055636;28;20021;-69
2022/03/07 12:27:06;;;;;;;23.27;16.80;;;13.80;54.60;;;;;;5057143;28;20104;-70
2022/03/07 12:29:33;;;;;;;23.23;16.33;;;13.80;51.90;;;;;;5057073;28;20013;-69
2022/03/07 12:32:03;;;;;;;25.55;17.73;;;13.80;51.20;;;;;;5057563;28;20029;-69
2022/03/07 12:34:33;;;;;;;;;;;13.70;52.60;;;;;;5057394;28;20025;-67
2022/03/07 12:37:11;;;;;;;22.50;15.93;;;13.50;52.10;;;;;;5057544;28;19996;-68
2022/03/07 12:39:58;;;;;;;22.08;16.15;;;13.30;52.80;;;;;;5056871;28;20032;-67
2022/03/07 12:42:29;;;;;;;25.02;16.60;;;13.20;52.60;;;;;;5057133;28;20051;-68
2022/03/07 12:44:59;;;;;;;22.75;16.15;;;12.60;51.70;;;;;;5057102;28;20090;-69
2022/03/07 12:47:35;;;;;;;25.20;16.77;;;11.50;53.60;;;;;;5056778;28;20021;-68
2022/03/07 12:50:01;;;;;;;24.05;16.70;;;10.70;55.20;;;;;;5057302;28;20102;-70